Medvezegorsk, Russia
Current Conditions -  °F | °C
As of 12:50 PM on Sunday 23 Nov 2014 (Local Time) from EFJO Reporting Station
Overcast Overcast  
Wind Chill: 32°   Ceiling: 400
Heat Index: 32°   Visibility: 5mi
Dew Point: 32°   Wind: 3mph
Humidity: 100%   Direction: 170°S
Pressure: 30.48"   Gusts: NA
Location:  62.92°N, 34.43°E
Report Text: EFJO 230950Z AUTO 17003KT 8000 BKN004 OVC016 M00/M00 Q1032
Loading
Personal Weather Stations






























Interactive Weather Map New forecast layout! Learn more

10-Day Weather Forecast

Advertisements
Track Severe Weather on mobile